createdAt,value
2022-09-04T00:01:52.629Z,80.65
2022-09-04T00:07:04.403Z,80.94
2022-09-04T00:12:08.957Z,80.17
2022-09-04T00:17:13.003Z,80.27
2022-09-04T00:22:27.185Z,80.44
2022-09-04T00:27:30.711Z,81.44
2022-09-04T00:32:41.530Z,81.22
2022-09-04T00:37:50.831Z,81.79
2022-09-04T00:43:08.332Z,82.32
2022-09-04T00:48:45.600Z,82.38
2022-09-04T00:54:18.051Z,83.02
2022-09-04T00:59:29.796Z,83.02
2022-09-04T01:04:39.800Z,82.86
2022-09-04T01:09:53.474Z,82.85
2022-09-04T01:15:00.971Z,83.18
2022-09-04T01:20:11.267Z,83.05
2022-09-04T01:25:31.367Z,82.12
2022-09-04T01:30:36.050Z,82.78
2022-09-04T01:35:43.650Z,81.99
2022-09-04T01:40:48.318Z,81.79
2022-09-04T01:46:13.062Z,81.78
2022-09-04T01:51:21.925Z,80.69
2022-09-04T01:56:27.084Z,80.88
2022-09-04T02:01:38.660Z,79.67
2022-09-04T02:06:50.542Z,79.98
2022-09-04T02:11:56.894Z,80.43
2022-09-04T02:17:09.298Z,79.71
2022-09-04T02:22:18.164Z,80.33
2022-09-04T02:27:23.438Z,80.31
2022-09-04T02:32:31.159Z,80.40
2022-09-04T02:37:38.819Z,79.83
2022-09-04T02:42:47.969Z,79.72
2022-09-04T02:47:54.604Z,80.27
2022-09-04T02:53:08.734Z,79.98
2022-09-04T02:58:21.252Z,79.58
2022-09-04T03:03:27.985Z,79.76
2022-09-04T03:08:36.220Z,80.47
2022-09-04T03:13:45.120Z,80.17
2022-09-04T03:19:04.304Z,81.05
2022-09-04T03:24:15.184Z,81.29
2022-09-04T03:29:25.270Z,81.75
2022-09-04T03:34:42.464Z,81.31
2022-09-04T03:39:52.724Z,81.83
2022-09-04T03:45:03.805Z,80.98
2022-09-04T03:50:12.947Z,80.58
2022-09-04T03:55:48.211Z,80.45
2022-09-04T04:00:57.302Z,80.68
2022-09-04T04:06:13.148Z,81.30
2022-09-04T04:11:41.340Z,80.87
2022-09-04T04:16:56.354Z,80.58
2022-09-04T04:22:10.469Z,80.94
2022-09-04T04:27:25.865Z,82.56
2022-09-04T04:33:00.413Z,82.71
2022-09-04T04:38:15.560Z,82.07
2022-09-04T04:43:23.892Z,82.90
2022-09-04T04:49:00.430Z,82.18
2022-09-04T04:54:15.050Z,81.91
2022-09-04T04:59:23.535Z,81.69
2022-09-04T05:04:33.300Z,81.39
2022-09-04T05:09:43.261Z,82.30
2022-09-04T05:14:51.560Z,81.68
2022-09-04T05:20:00.696Z,80.82
2022-09-04T05:25:11.806Z,79.91
2022-09-04T05:30:14.022Z,79.22
2022-09-04T05:35:19.278Z,78.88
2022-09-04T05:40:29.427Z,78.74
2022-09-04T05:45:39.150Z,78.64
2022-09-04T05:50:50.316Z,77.54
2022-09-04T05:56:09.288Z,77.24
2022-09-04T06:01:19.735Z,77.59
2022-09-04T06:06:23.985Z,75.76
2022-09-04T06:11:42.337Z,75.00
2022-09-04T06:16:55.133Z,74.34
2022-09-04T06:22:20.419Z,73.45
2022-09-04T06:27:35.471Z,73.26
2022-09-04T06:32:56.599Z,71.91
2022-09-04T06:38:08.320Z,69.99
2022-09-04T06:43:27.455Z,70.04
2022-09-04T06:48:39.312Z,67.89
2022-09-04T06:53:42.789Z,66.36
2022-09-04T06:59:07.205Z,66.38
2022-09-04T07:04:14.622Z,66.02
2022-09-04T07:09:18.434Z,65.60
2022-09-04T07:14:38.858Z,64.62
2022-09-04T07:20:14.836Z,64.38
2022-09-04T07:25:18.590Z,63.64
2022-09-04T07:30:20.345Z,62.76
2022-09-04T07:35:25.254Z,62.38
2022-09-04T07:40:30.920Z,61.42
2022-09-04T07:45:37.935Z,61.73
2022-09-04T07:50:41.729Z,61.58
2022-09-04T07:55:43.595Z,60.53
2022-09-04T08:00:57.833Z,59.40
2022-09-04T08:06:08.343Z,59.31
2022-09-04T08:11:28.130Z,59.57
2022-09-04T08:16:36.100Z,58.13
2022-09-04T08:21:39.277Z,57.32
2022-09-04T08:26:47.139Z,56.35
2022-09-04T08:32:03.782Z,56.30
2022-09-04T08:37:15.591Z,55.51
2022-09-04T08:42:43.316Z,53.67
2022-09-04T08:48:19.403Z,51.26
2022-09-04T08:53:55.989Z,49.73
2022-09-04T08:59:29.017Z,48.11
2022-09-04T09:05:04.947Z,46.80
2022-09-04T09:10:32.180Z,46.72
2022-09-04T09:15:57.346Z,47.29
2022-09-04T09:21:07.357Z,46.93
2022-09-04T09:26:24.430Z,45.08
2022-09-04T09:31:51.770Z,43.91
2022-09-04T09:37:26.736Z,42.67
2022-09-04T09:42:53.743Z,41.70
2022-09-04T09:48:46.371Z,40.60
2022-09-04T09:54:29.242Z,40.01
2022-09-04T09:59:47.035Z,40.28
2022-09-04T10:05:26.499Z,41.05
2022-09-04T10:10:55.048Z,39.94
2022-09-04T10:16:35.680Z,39.62
2022-09-04T10:22:14.223Z,38.86
2022-09-04T10:27:49.945Z,38.75
2022-09-04T10:33:26.620Z,37.17
2022-09-04T10:38:37.727Z,38.23
2022-09-04T10:44:03.064Z,36.98
2022-09-04T10:49:20.704Z,36.72
2022-09-04T10:54:45.173Z,35.60
2022-09-04T11:00:03.160Z,35.28
2022-09-04T11:05:36.694Z,33.96
2022-09-04T11:10:59.373Z,34.28
2022-09-04T11:16:23.890Z,33.03
2022-09-04T11:21:59.412Z,32.68
2022-09-04T11:27:26.588Z,33.38
2022-09-04T11:32:53.663Z,33.01
2022-09-04T11:38:10.421Z,32.96
2022-09-04T11:43:37.446Z,33.08
2022-09-04T11:49:09.493Z,33.04
2022-09-04T11:54:31.006Z,34.19
2022-09-04T11:59:48.504Z,34.46
2022-09-04T12:05:05.135Z,34.05
2022-09-04T12:11:16.743Z,32.28
2022-09-04T12:16:53.218Z,32.84
2022-09-04T12:28:27.158Z,33.39
2022-09-04T12:33:46.510Z,33.03
2022-09-04T12:39:24.134Z,33.47
2022-09-04T12:44:39.274Z,34.75
2022-09-04T12:50:04.099Z,35.44
2022-09-04T12:55:13.007Z,35.76
2022-09-04T13:06:21.183Z,34.65
2022-09-04T13:12:04.988Z,33.82
2022-09-04T13:17:20.661Z,34.20
2022-09-04T13:22:33.510Z,34.56
2022-09-04T13:27:59.007Z,34.79
2022-09-04T13:33:26.974Z,35.85
2022-09-04T13:45:14.072Z,33.01
2022-09-04T13:56:16.911Z,32.73
2022-09-04T14:01:21.941Z,32.52
2022-09-04T14:06:25.587Z,32.96
2022-09-04T14:11:53.273Z,30.95
2022-09-04T14:16:55.553Z,30.19
2022-09-04T14:22:17.773Z,30.08
2022-09-04T14:27:27.827Z,30.40
2022-09-04T14:33:06.198Z,31.30
2022-09-04T14:45:24.529Z,31.81
2022-09-04T14:51:28.444Z,32.21
2022-09-04T15:24:48.186Z,38.10
2022-09-04T15:30:55.286Z,38.27
2022-09-04T15:48:35.483Z,41.21
2022-09-04T15:53:36.832Z,41.05
2022-09-04T15:58:46.413Z,41.07
2022-09-04T16:04:01.509Z,42.03
2022-09-04T16:09:07.043Z,42.79
2022-09-04T16:43:10.875Z,45.47
2022-09-04T16:48:34.308Z,46.11
2022-09-04T16:53:45.206Z,46.04
2022-09-04T17:04:54.657Z,47.68
2022-09-04T17:10:03.155Z,48.32
2022-09-04T17:15:44.228Z,49.46
2022-09-04T17:26:19.874Z,48.87
2022-09-04T17:29:08.798Z,49.23
2022-09-04T17:40:55.962Z,50.41
2022-09-04T17:49:13.158Z,51.19
2022-09-04T17:54:27.181Z,51.20
2022-09-04T17:59:40.434Z,51.43
2022-09-04T18:04:50.998Z,51.95
2022-09-04T18:10:01.570Z,51.93
2022-09-04T18:15:33.203Z,52.30
2022-09-04T18:27:04.861Z,53.15
2022-09-04T18:37:26.027Z,53.78
2022-09-04T18:37:55.078Z,54.42
2022-09-04T18:50:11.641Z,54.48
2022-09-04T18:50:51.327Z,54.63
2022-09-04T18:54:24.570Z,54.64
2022-09-04T19:06:16.786Z,54.50
2022-09-04T19:11:37.128Z,54.53
2022-09-04T19:16:56.116Z,55.27
2022-09-04T19:22:28.303Z,55.01
2022-09-04T19:27:39.022Z,55.35
2022-09-04T19:32:46.585Z,55.25
2022-09-04T19:40:58.449Z,54.87
2022-09-04T19:46:09.187Z,54.82
2022-09-04T19:49:19.366Z,54.41
2022-09-04T19:54:13.070Z,55.07
2022-09-04T19:59:24.120Z,55.00
2022-09-04T20:04:41.093Z,55.56
2022-09-04T20:09:46.720Z,55.44
2022-09-04T20:15:01.795Z,56.07
2022-09-04T20:20:16.010Z,56.23
2022-09-04T20:25:40.082Z,56.48
2022-09-04T20:30:45.022Z,57.26
2022-09-04T20:35:50.489Z,57.67
2022-09-04T20:40:58.981Z,57.54
2022-09-04T20:50:10.348Z,58.25
2022-09-04T20:52:57.781Z,58.65
2022-09-04T21:00:16.849Z,58.86
2022-09-04T21:03:24.846Z,59.02
2022-09-04T21:08:10.561Z,59.01
2022-09-04T21:13:15.166Z,58.65
2022-09-04T21:18:37.773Z,59.00
2022-09-04T21:24:12.684Z,59.58
2022-09-04T21:29:37.029Z,59.54
2022-09-04T21:34:56.068Z,59.29
2022-09-04T21:40:51.420Z,59.82
2022-09-04T21:46:04.682Z,60.26
2022-09-04T21:51:28.704Z,59.93
2022-09-04T22:02:15.071Z,60.07
2022-09-04T22:02:54.327Z,60.36
2022-09-04T22:13:28.413Z,60.54
2022-09-04T22:13:49.315Z,60.90
2022-09-04T22:19:17.286Z,61.31
2022-09-04T22:24:48.382Z,61.26
2022-09-04T22:30:12.884Z,61.83
2022-09-04T22:36:14.128Z,61.20
2022-09-04T22:42:01.549Z,59.94
2022-09-04T22:47:27.746Z,59.25
2022-09-04T22:52:43.123Z,59.97
2022-09-04T22:57:57.362Z,60.37
2022-09-04T23:03:33.236Z,60.10
2022-09-04T23:13:54.629Z,59.75
2022-09-04T23:14:25.605Z,59.78
2022-09-04T23:26:38.817Z,59.67
2022-09-04T23:32:22.534Z,61.00
2022-09-04T23:37:42.734Z,61.37
2022-09-04T23:43:07.520Z,62.43
2022-09-04T23:49:18.659Z,63.11
2022-09-04T23:54:49.802Z,62.88
2022-09-04T23:59:56.960Z,62.82
